createdAt,value
2023-03-24T00:00:25.078Z,67.96
2023-03-24T00:03:02.576Z,67.57
2023-03-24T00:05:17.053Z,67.23
2023-03-24T00:07:31.692Z,67.29
2023-03-24T00:09:45.271Z,66.98
2023-03-24T00:11:58.756Z,66.76
2023-03-24T00:14:13.041Z,66.65
2023-03-24T00:16:25.919Z,66.60
2023-03-24T00:18:40.702Z,66.76
2023-03-24T00:20:59.332Z,66.70
2023-03-24T00:23:13.481Z,66.64
2023-03-24T00:25:29.412Z,66.64
2023-03-24T00:27:43.014Z,66.50
2023-03-24T00:29:55.536Z,66.29
2023-03-24T00:32:09.464Z,66.13
2023-03-24T00:34:23.453Z,66.35
2023-03-24T00:36:36.702Z,66.36
2023-03-24T00:38:51.131Z,66.43
2023-03-24T00:41:04.051Z,66.53
2023-03-24T00:43:16.850Z,66.68
2023-03-24T00:45:35.505Z,66.97
2023-03-24T00:47:50.975Z,66.97
2023-03-24T00:50:04.936Z,66.94
2023-03-24T00:52:21.682Z,67.01
2023-03-24T00:54:35.277Z,67.17
2023-03-24T00:56:50.732Z,67.30
2023-03-24T00:59:04.209Z,67.12
2023-03-24T01:01:18.614Z,67.33
2023-03-24T01:03:35.263Z,67.69
2023-03-24T01:05:50.244Z,67.27
2023-03-24T01:08:06.021Z,67.20
2023-03-24T01:10:20.534Z,67.11
2023-03-24T01:12:37.931Z,67.03
2023-03-24T01:14:50.744Z,66.92
2023-03-24T01:17:04.655Z,66.72
2023-03-24T01:19:19.882Z,66.77
2023-03-24T01:21:32.931Z,66.93
2023-03-24T01:23:45.920Z,66.83
2023-03-24T01:25:58.980Z,66.76
2023-03-24T01:28:11.958Z,66.72
2023-03-24T01:30:27.666Z,66.22
2023-03-24T01:32:40.543Z,66.23
2023-03-24T01:34:53.465Z,66.25
2023-03-24T01:37:07.059Z,66.55
2023-03-24T01:39:20.631Z,66.76
2023-03-24T01:41:40.994Z,66.86
2023-03-24T01:43:54.997Z,66.88
2023-03-24T01:46:20.042Z,66.90
2023-03-24T01:48:37.072Z,66.88
2023-03-24T01:50:54.545Z,66.65
2023-03-24T01:53:10.959Z,66.55
2023-03-24T01:55:24.476Z,66.56
2023-03-24T01:57:43.750Z,66.89
2023-03-24T02:00:01.587Z,66.64
2023-03-24T02:02:37.130Z,66.86
2023-03-24T02:04:55.217Z,66.70
2023-03-24T02:07:23.967Z,66.69
2023-03-24T02:09:36.871Z,66.76
2023-03-24T02:11:49.908Z,66.78
2023-03-24T02:14:03.342Z,66.73
2023-03-24T02:16:41.525Z,66.79
2023-03-24T02:19:17.172Z,66.97
2023-03-24T02:21:52.791Z,66.92
2023-03-24T02:25:08.111Z,66.93
2023-03-24T02:27:38.396Z,66.88
2023-03-24T02:30:19.024Z,66.74
2023-03-24T02:32:59.859Z,66.90
2023-03-24T02:35:44.068Z,67.06
2023-03-24T02:38:18.549Z,67.10
2023-03-24T02:40:36.357Z,67.17
2023-03-24T02:43:03.732Z,67.06
2023-03-24T02:45:27.296Z,66.88
2023-03-24T02:47:49.447Z,67.22
2023-03-24T02:50:08.967Z,67.36
2023-03-24T02:52:26.547Z,67.43
2023-03-24T02:54:51.273Z,67.41
2023-03-24T02:57:08.785Z,67.67
2023-03-24T02:59:48.189Z,67.86
2023-03-24T03:02:24.417Z,67.68
2023-03-24T03:04:50.934Z,67.92
2023-03-24T03:07:10.567Z,68.11
2023-03-24T03:09:25.990Z,68.02
2023-03-24T03:11:40.207Z,67.98
2023-03-24T03:13:56.597Z,68.14
2023-03-24T03:16:14.934Z,68.03
2023-03-24T03:18:33.469Z,68.41
2023-03-24T03:20:51.901Z,68.32
2023-03-24T03:23:08.634Z,68.30
2023-03-24T03:25:25.747Z,68.50
2023-03-24T03:27:40.574Z,68.56
2023-03-24T03:29:57.981Z,68.48
2023-03-24T03:32:14.219Z,68.73
2023-03-24T03:34:38.600Z,68.79
2023-03-24T03:36:59.913Z,68.78
2023-03-24T03:39:18.910Z,68.92
2023-03-24T03:41:32.845Z,68.98
2023-03-24T03:43:47.478Z,69.62
2023-03-24T03:46:01.297Z,69.51
2023-03-24T03:48:19.833Z,69.48
2023-03-24T03:50:33.121Z,69.76
2023-03-24T03:52:50.824Z,69.70
2023-03-24T03:55:05.212Z,69.99
2023-03-24T03:57:19.440Z,69.97
2023-03-24T03:59:48.781Z,70.31
2023-03-24T04:02:02.160Z,70.31
2023-03-24T04:04:53.201Z,70.34
2023-03-24T04:07:49.883Z,70.49
2023-03-24T04:10:26.020Z,70.43
2023-03-24T04:13:02.342Z,70.31
2023-03-24T04:15:49.319Z,70.37
2023-03-24T04:18:47.052Z,69.99
2023-03-24T04:21:24.371Z,70.26
2023-03-24T04:23:55.935Z,70.20
2023-03-24T04:26:18.111Z,70.23
2023-03-24T04:28:41.932Z,70.31
2023-03-24T04:30:57.833Z,70.06
2023-03-24T04:33:19.048Z,70.38
2023-03-24T04:35:41.841Z,70.35
2023-03-24T04:38:03.712Z,70.17
2023-03-24T04:40:19.819Z,70.25
2023-03-24T04:42:37.535Z,70.03
2023-03-24T04:44:53.386Z,69.98
2023-03-24T04:47:44.330Z,69.86
2023-03-24T04:50:16.138Z,70.10
2023-03-24T04:52:29.109Z,69.68
2023-03-24T04:54:42.216Z,69.68
2023-03-24T04:56:56.608Z,69.58
2023-03-24T04:59:10.185Z,69.60
2023-03-24T05:01:25.297Z,69.54
2023-03-24T05:03:59.326Z,69.48
2023-03-24T05:06:14.937Z,69.27
2023-03-24T05:08:29.828Z,69.26
2023-03-24T05:10:43.563Z,69.57
2023-03-24T05:12:56.816Z,69.37
2023-03-24T05:15:14.456Z,69.57
2023-03-24T05:17:28.775Z,69.57
2023-03-24T05:19:42.583Z,69.63
2023-03-24T05:21:57.301Z,69.64
2023-03-24T05:24:11.876Z,69.54
2023-03-24T05:26:24.950Z,69.59
2023-03-24T05:28:53.295Z,69.60
2023-03-24T05:31:06.638Z,69.43
2023-03-24T05:33:27.731Z,69.71
2023-03-24T05:35:41.758Z,69.78
2023-03-24T05:37:54.410Z,69.74
2023-03-24T05:40:08.247Z,69.94
2023-03-24T05:42:30.000Z,69.80
2023-03-24T05:44:44.125Z,70.19
2023-03-24T05:47:03.376Z,70.11
2023-03-24T05:49:16.434Z,70.13
2023-03-24T05:51:30.009Z,70.15
2023-03-24T05:53:48.241Z,70.33
2023-03-24T05:56:12.844Z,70.37
2023-03-24T05:58:46.194Z,70.45
2023-03-24T06:01:01.002Z,70.39
2023-03-24T06:03:18.359Z,70.59
2023-03-24T06:05:43.017Z,70.51
2023-03-24T06:07:59.455Z,70.49
2023-03-24T06:10:15.458Z,70.63
2023-03-24T06:12:33.874Z,70.55
2023-03-24T06:14:48.393Z,70.81
2023-03-24T06:17:02.007Z,70.72
2023-03-24T06:19:14.811Z,70.80
2023-03-24T06:21:51.675Z,71.25
2023-03-24T06:24:07.583Z,71.13
2023-03-24T06:26:21.089Z,71.31
2023-03-24T06:28:40.920Z,71.47
2023-03-24T06:30:59.777Z,71.83
2023-03-24T06:33:23.491Z,71.71
2023-03-24T06:35:36.618Z,72.23
2023-03-24T06:37:53.023Z,72.25
2023-03-24T06:40:06.162Z,72.20
2023-03-24T06:42:19.700Z,72.26
2023-03-24T06:44:33.036Z,72.55
2023-03-24T06:46:47.040Z,72.76
2023-03-24T06:49:01.198Z,72.76
2023-03-24T06:51:14.068Z,72.84
2023-03-24T06:53:26.601Z,72.50
2023-03-24T06:55:39.902Z,72.93
2023-03-24T06:57:53.203Z,73.07
2023-03-24T07:00:23.252Z,72.74
2023-03-24T07:02:47.072Z,72.85
2023-03-24T07:05:00.158Z,73.02
2023-03-24T07:09:59.194Z,72.86
2023-03-24T07:12:14.402Z,73.04
2023-03-24T07:14:29.071Z,72.93
2023-03-24T07:16:43.324Z,73.16
2023-03-24T07:19:10.756Z,72.85
2023-03-24T07:21:24.727Z,73.24
2023-03-24T07:23:38.010Z,73.12
2023-03-24T07:26:02.523Z,73.29
2023-03-24T07:28:38.154Z,73.14
2023-03-24T07:30:53.932Z,73.38
2023-03-24T07:33:11.191Z,73.47
2023-03-24T07:35:24.570Z,73.32
2023-03-24T07:37:37.688Z,73.55
2023-03-24T07:39:50.860Z,73.54
2023-03-24T07:42:03.901Z,73.69
2023-03-24T07:44:31.459Z,73.70
2023-03-24T07:46:46.050Z,73.89
2023-03-24T07:49:05.750Z,73.69
2023-03-24T07:51:26.780Z,73.95
2023-03-24T07:53:51.745Z,74.02
2023-03-24T07:56:13.911Z,74.31
2023-03-24T07:58:31.804Z,73.99
2023-03-24T08:00:57.635Z,74.38
2023-03-24T08:03:18.038Z,74.35
2023-03-24T08:05:50.756Z,74.50
2023-03-24T08:08:18.376Z,74.59
2023-03-24T08:10:32.919Z,74.50
2023-03-24T08:12:46.429Z,74.61
2023-03-24T08:14:59.445Z,74.75
2023-03-24T08:17:12.737Z,74.73
2023-03-24T08:19:25.854Z,74.86
2023-03-24T08:21:39.882Z,74.74
2023-03-24T08:23:52.905Z,74.62
2023-03-24T08:26:06.498Z,74.38
2023-03-24T08:28:19.363Z,74.41
2023-03-24T08:30:32.782Z,74.54
2023-03-24T08:32:49.670Z,74.51
2023-03-24T08:35:03.805Z,74.58
2023-03-24T08:37:16.720Z,74.80
2023-03-24T08:39:33.587Z,74.80
2023-03-24T08:41:47.496Z,74.56
2023-03-24T08:44:00.509Z,74.87
2023-03-24T08:46:14.068Z,75.01
2023-03-24T08:48:27.104Z,75.04
2023-03-24T08:50:42.931Z,75.22
2023-03-24T08:52:56.824Z,75.23
2023-03-24T08:55:10.287Z,75.23
2023-03-24T08:57:23.004Z,75.32
2023-03-24T08:59:35.607Z,75.61
2023-03-24T09:01:48.885Z,75.55
2023-03-24T09:04:01.716Z,75.68
2023-03-24T09:06:15.099Z,75.56
2023-03-24T09:08:28.473Z,75.74
2023-03-24T09:10:41.901Z,75.56
2023-03-24T09:12:54.762Z,75.54
2023-03-24T09:15:10.742Z,75.62
2023-03-24T09:17:25.103Z,75.66
2023-03-24T09:19:38.721Z,75.61
2023-03-24T09:21:52.205Z,75.53
2023-03-24T09:24:05.691Z,75.79
2023-03-24T09:26:18.526Z,75.81
2023-03-24T09:28:31.178Z,75.83
2023-03-24T09:30:44.402Z,75.94
2023-03-24T09:33:00.017Z,75.96
2023-03-24T09:35:13.587Z,75.85
2023-03-24T09:37:26.622Z,76.20
2023-03-24T09:39:41.115Z,76.02
2023-03-24T09:41:54.150Z,76.25
2023-03-24T09:44:15.176Z,76.19
2023-03-24T09:46:35.697Z,76.29
2023-03-24T09:48:52.095Z,76.37
2023-03-24T09:51:08.242Z,76.26
2023-03-24T09:53:38.169Z,76.43
2023-03-24T09:55:51.994Z,76.40
2023-03-24T09:58:09.543Z,76.54
2023-03-24T10:00:28.995Z,76.30
2023-03-24T10:02:43.580Z,76.47
2023-03-24T10:04:56.823Z,76.70
2023-03-24T10:07:19.383Z,76.58
2023-03-24T10:09:34.535Z,76.73
2023-03-24T10:11:54.209Z,76.62
2023-03-24T10:14:17.266Z,76.63
2023-03-24T10:16:37.447Z,76.69
2023-03-24T10:18:55.486Z,76.64
2023-03-24T10:21:17.065Z,76.66
2023-03-24T10:23:40.326Z,76.63
2023-03-24T10:25:59.564Z,76.70
2023-03-24T10:28:22.718Z,76.63
2023-03-24T10:30:38.107Z,76.64
2023-03-24T10:32:51.806Z,76.72
2023-03-24T10:35:10.744Z,76.78
2023-03-24T10:37:23.890Z,76.97
2023-03-24T10:39:44.076Z,76.93
2023-03-24T10:41:59.919Z,76.93
2023-03-24T10:44:14.442Z,77.07
2023-03-24T10:46:29.274Z,77.17
2023-03-24T10:48:48.756Z,77.32
2023-03-24T10:51:04.596Z,77.45
2023-03-24T10:53:23.810Z,77.41
2023-03-24T10:55:40.137Z,77.62
2023-03-24T10:57:57.009Z,77.77
2023-03-24T11:00:20.760Z,77.78
2023-03-24T11:02:36.035Z,77.64
2023-03-24T11:04:54.150Z,77.55
2023-03-24T11:07:17.162Z,77.56
2023-03-24T11:09:30.887Z,77.65
2023-03-24T11:11:44.664Z,77.65
2023-03-24T11:14:04.282Z,77.50
2023-03-24T11:16:20.863Z,77.61
2023-03-24T11:18:35.074Z,77.70
2023-03-24T11:20:51.033Z,77.85
2023-03-24T11:23:06.636Z,77.68
2023-03-24T11:25:21.051Z,78.05
2023-03-24T11:27:35.414Z,78.05
2023-03-24T11:29:52.755Z,77.98
2023-03-24T11:32:08.843Z,78.28
2023-03-24T11:34:25.456Z,78.09
2023-03-24T11:36:50.421Z,78.28
2023-03-24T11:39:14.112Z,78.07
2023-03-24T11:41:28.354Z,78.16
2023-03-24T11:43:40.997Z,78.26
2023-03-24T11:46:01.360Z,78.07
2023-03-24T11:48:33.129Z,77.77
2023-03-24T11:50:48.283Z,77.80
2023-03-24T11:53:05.458Z,77.64
2023-03-24T11:55:22.299Z,77.68
2023-03-24T11:57:49.020Z,77.56
2023-03-24T12:00:10.036Z,77.58
2023-03-24T12:02:37.589Z,77.45
2023-03-24T12:05:02.518Z,77.36
2023-03-24T12:07:51.060Z,77.41
2023-03-24T12:10:10.091Z,77.25
2023-03-24T12:12:33.727Z,77.24
2023-03-24T12:14:57.485Z,77.26
2023-03-24T12:17:16.869Z,77.33
2023-03-24T12:19:46.328Z,77.31
2023-03-24T12:22:10.133Z,77.39
2023-03-24T12:24:33.926Z,77.38
2023-03-24T12:26:46.888Z,77.44
2023-03-24T12:29:15.995Z,77.27
2023-03-24T12:31:53.094Z,77.31
2023-03-24T12:34:17.998Z,77.34
2023-03-24T12:36:49.908Z,77.57
2023-03-24T12:39:12.605Z,77.45
2023-03-24T12:41:54.057Z,77.49
2023-03-24T12:44:21.214Z,77.59
2023-03-24T12:46:48.347Z,77.66
2023-03-24T12:49:28.754Z,77.65
2023-03-24T12:51:51.053Z,77.80
2023-03-24T12:54:20.651Z,77.81
2023-03-24T12:56:41.279Z,77.84
2023-03-24T12:58:57.305Z,77.98
2023-03-24T13:01:15.410Z,77.90
2023-03-24T13:03:37.233Z,77.92
2023-03-24T13:05:55.564Z,77.83
2023-03-24T13:08:30.318Z,77.82
2023-03-24T13:10:43.742Z,77.94
2023-03-24T13:13:01.368Z,77.99
2023-03-24T13:15:23.001Z,77.85
2023-03-24T13:17:39.948Z,77.78
2023-03-24T13:19:55.153Z,77.84
2023-03-24T13:22:10.063Z,77.87
2023-03-24T13:24:24.095Z,77.77
2023-03-24T13:26:43.908Z,77.88
2023-03-24T13:29:07.997Z,77.75
2023-03-24T13:31:24.725Z,77.65
2023-03-24T13:33:42.237Z,77.83
2023-03-24T13:36:18.567Z,78.01
2023-03-24T13:38:38.623Z,77.86
2023-03-24T13:40:55.470Z,77.65
2023-03-24T13:43:14.484Z,77.71
2023-03-24T13:45:36.141Z,77.73
2023-03-24T13:48:08.370Z,77.66
2023-03-24T13:50:22.263Z,77.51
2023-03-24T13:52:41.087Z,77.63
2023-03-24T13:55:01.957Z,77.52
2023-03-24T13:57:24.586Z,77.60
2023-03-24T13:59:43.033Z,77.60
2023-03-24T14:02:26.126Z,77.76
2023-03-24T14:04:52.351Z,77.58
2023-03-24T14:07:35.503Z,77.89
2023-03-24T14:10:04.536Z,77.72
2023-03-24T14:12:25.610Z,77.78
2023-03-24T14:15:00.733Z,77.74
2023-03-24T14:17:20.168Z,77.80
2023-03-24T14:19:40.252Z,77.83
2023-03-24T14:22:00.512Z,77.71
2023-03-24T14:24:26.416Z,77.78
2023-03-24T14:26:40.041Z,77.81
2023-03-24T14:28:55.057Z,77.65
2023-03-24T14:31:21.682Z,77.99
2023-03-24T14:33:34.699Z,77.73
2023-03-24T14:35:50.182Z,77.79
2023-03-24T14:38:06.009Z,77.69
2023-03-24T14:40:33.398Z,77.52
2023-03-24T14:43:16.178Z,77.60
2023-03-24T14:46:07.531Z,77.50
2023-03-24T14:48:41.471Z,77.38
2023-03-24T14:50:56.701Z,77.25
2023-03-24T14:53:21.134Z,77.30
2023-03-24T14:55:37.057Z,77.51
2023-03-24T14:57:51.980Z,77.65
2023-03-24T15:00:13.125Z,77.54
2023-03-24T15:02:35.537Z,77.42
2023-03-24T15:05:02.624Z,77.41
2023-03-24T15:07:19.280Z,77.56
2023-03-24T15:09:32.883Z,77.44
2023-03-24T15:11:46.500Z,77.44
2023-03-24T15:14:00.460Z,77.57
2023-03-24T15:16:24.094Z,77.50
2023-03-24T15:18:40.407Z,77.44
2023-03-24T15:20:59.903Z,77.44
2023-03-24T15:23:23.257Z,77.37
2023-03-24T15:25:36.234Z,77.55
2023-03-24T15:27:55.028Z,77.31
2023-03-24T15:30:12.395Z,77.44
2023-03-24T15:32:28.357Z,77.49
2023-03-24T15:34:46.047Z,77.60
2023-03-24T15:37:03.209Z,77.39
2023-03-24T15:39:28.743Z,77.46
2023-03-24T15:41:41.678Z,77.27
2023-03-24T15:43:56.816Z,77.15
2023-03-24T15:46:12.726Z,77.19
2023-03-24T15:48:28.445Z,77.16
2023-03-24T15:50:42.808Z,77.17
2023-03-24T15:53:04.921Z,77.15
2023-03-24T15:55:22.786Z,77.28
2023-03-24T15:57:44.537Z,77.27
2023-03-24T16:00:13.060Z,77.33
2023-03-24T16:02:39.871Z,77.25
2023-03-24T16:05:03.922Z,77.36
2023-03-24T16:07:33.593Z,77.35
2023-03-24T16:09:46.893Z,77.14
2023-03-24T16:11:59.744Z,77.21
2023-03-24T16:14:25.003Z,77.24
2023-03-24T16:16:45.263Z,77.17
2023-03-24T16:19:00.383Z,77.07
2023-03-24T16:21:20.518Z,77.12
2023-03-24T16:23:34.772Z,77.13
2023-03-24T16:25:48.280Z,77.09
2023-03-24T16:28:02.238Z,77.18
2023-03-24T16:30:27.733Z,77.08
2023-03-24T16:32:40.688Z,76.96
2023-03-24T16:34:53.526Z,76.96
2023-03-24T16:37:06.899Z,77.27
2023-03-24T16:39:22.461Z,77.09
2023-03-24T16:41:36.044Z,77.00
2023-03-24T16:43:49.388Z,77.05
2023-03-24T16:46:04.451Z,77.06
2023-03-24T16:48:19.333Z,76.87
2023-03-24T16:50:36.213Z,77.00
2023-03-24T16:52:49.673Z,76.83
2023-03-24T16:55:02.593Z,76.85
2023-03-24T16:57:15.423Z,76.75
2023-03-24T16:59:29.711Z,76.62
2023-03-24T17:01:46.606Z,76.70
2023-03-24T17:04:00.612Z,76.80
2023-03-24T17:06:14.504Z,76.76
2023-03-24T17:08:27.754Z,76.72
2023-03-24T17:10:40.590Z,76.81
2023-03-24T17:12:54.400Z,76.80
2023-03-24T17:15:07.287Z,76.90
2023-03-24T17:17:20.231Z,76.69
2023-03-24T17:19:34.218Z,76.68
2023-03-24T17:21:52.363Z,76.71
2023-03-24T17:24:07.937Z,76.73
2023-03-24T17:26:20.956Z,76.65
2023-03-24T17:28:34.221Z,76.65
2023-03-24T17:30:47.507Z,76.70
2023-03-24T17:33:00.985Z,76.79
2023-03-24T17:35:17.588Z,76.70
2023-03-24T17:37:31.157Z,76.74
2023-03-24T17:39:44.236Z,76.72
2023-03-24T17:41:59.729Z,76.66
2023-03-24T17:44:13.610Z,76.77
2023-03-24T17:46:26.578Z,76.74
2023-03-24T17:48:40.044Z,76.69
2023-03-24T17:50:52.742Z,76.99
2023-03-24T17:53:05.665Z,76.98
2023-03-24T17:55:19.436Z,77.04
2023-03-24T17:57:31.951Z,77.05
2023-03-24T17:59:44.829Z,77.17
2023-03-24T18:01:58.531Z,76.97
2023-03-24T18:04:11.258Z,76.94
2023-03-24T18:06:23.649Z,77.02
2023-03-24T18:08:36.181Z,77.01
2023-03-24T18:10:50.471Z,77.12
2023-03-24T18:13:04.432Z,77.25
2023-03-24T18:15:18.765Z,77.30
2023-03-24T18:17:32.519Z,77.57
2023-03-24T18:19:45.682Z,77.42
2023-03-24T18:21:58.636Z,77.60
2023-03-24T18:24:13.023Z,77.39
2023-03-24T18:26:25.855Z,77.28
2023-03-24T18:28:39.714Z,77.25
2023-03-24T18:30:53.225Z,77.00
2023-03-24T18:33:08.824Z,77.01
2023-03-24T18:35:21.792Z,77.23
2023-03-24T18:37:36.030Z,77.06
2023-03-24T18:39:49.379Z,76.87
2023-03-24T18:42:02.477Z,76.99
2023-03-24T18:44:18.014Z,76.96
2023-03-24T18:46:32.253Z,76.93
2023-03-24T18:48:45.969Z,76.89
2023-03-24T18:51:00.445Z,76.76
2023-03-24T18:53:14.590Z,76.73
2023-03-24T18:55:27.805Z,76.93
2023-03-24T18:57:41.265Z,77.37
2023-03-24T18:59:54.404Z,77.46
2023-03-24T19:02:07.050Z,77.47
2023-03-24T19:04:20.495Z,77.75
2023-03-24T19:06:36.359Z,77.87
2023-03-24T19:08:53.417Z,77.64
2023-03-24T19:11:06.708Z,77.47
2023-03-24T19:13:20.650Z,77.42
2023-03-24T19:15:34.074Z,77.41
2023-03-24T19:17:47.684Z,77.55
2023-03-24T19:20:00.328Z,77.32
2023-03-24T19:22:13.013Z,77.16
2023-03-24T19:24:29.251Z,77.03
2023-03-24T19:26:42.490Z,77.00
2023-03-24T19:28:55.576Z,77.10
2023-03-24T19:31:13.647Z,77.47
2023-03-24T19:33:26.723Z,78.05
2023-03-24T19:35:40.631Z,78.83
2023-03-24T19:37:53.363Z,78.91
2023-03-24T19:40:09.658Z,78.77
2023-03-24T19:42:24.410Z,78.45
2023-03-24T19:44:39.501Z,78.06
2023-03-24T19:46:52.646Z,77.46
2023-03-24T19:49:06.133Z,76.82
2023-03-24T19:51:19.542Z,77.54
2023-03-24T19:53:32.249Z,77.21
2023-03-24T19:55:45.234Z,77.35
2023-03-24T19:57:58.298Z,77.13
2023-03-24T20:00:12.898Z,76.98
2023-03-24T20:02:25.955Z,76.78
2023-03-24T20:04:39.028Z,76.91
2023-03-24T20:06:51.933Z,77.38
2023-03-24T20:09:06.596Z,76.99
2023-03-24T20:11:19.506Z,76.28
2023-03-24T20:13:32.517Z,76.20
2023-03-24T20:15:45.837Z,75.99
2023-03-24T20:17:59.040Z,75.59
2023-03-24T20:20:15.215Z,76.13
2023-03-24T20:22:28.457Z,76.25
2023-03-24T20:24:41.631Z,76.59
2023-03-24T20:26:54.540Z,76.60
2023-03-24T20:29:07.701Z,76.19
2023-03-24T20:31:20.673Z,75.53
2023-03-24T20:33:33.677Z,75.00
2023-03-24T20:35:46.625Z,75.21
2023-03-24T20:37:59.150Z,75.25
2023-03-24T20:40:14.191Z,75.30
2023-03-24T20:42:29.102Z,75.19
2023-03-24T20:44:41.648Z,75.19
2023-03-24T20:46:54.399Z,75.14
2023-03-24T20:49:07.584Z,75.07
2023-03-24T20:51:21.386Z,74.79
2023-03-24T20:53:36.876Z,74.68
2023-03-24T20:55:58.901Z,74.67
2023-03-24T20:58:12.326Z,75.02
2023-03-24T21:00:25.681Z,75.01
2023-03-24T21:02:39.075Z,74.85
2023-03-24T21:04:52.984Z,74.39
2023-03-24T21:07:05.483Z,73.60
2023-03-24T21:09:18.156Z,73.06
2023-03-24T21:11:32.438Z,72.75
2023-03-24T21:13:45.416Z,72.64
2023-03-24T21:15:58.560Z,72.09
2023-03-24T21:18:11.947Z,71.96
2023-03-24T21:20:27.742Z,71.92
2023-03-24T21:22:48.669Z,71.84
2023-03-24T21:25:01.955Z,71.72
2023-03-24T21:27:14.674Z,70.73
2023-03-24T21:29:28.174Z,70.52
2023-03-24T21:31:42.673Z,70.12
2023-03-24T21:33:56.109Z,68.93
2023-03-24T21:36:09.083Z,68.88
2023-03-24T21:38:21.697Z,68.71
2023-03-24T21:40:34.464Z,68.76
2023-03-24T21:42:47.743Z,68.73
2023-03-24T21:45:01.874Z,69.01
2023-03-24T21:47:15.900Z,69.06
2023-03-24T21:49:30.060Z,69.31
2023-03-24T21:51:44.001Z,68.51
2023-03-24T21:54:00.376Z,69.04
2023-03-24T21:56:14.305Z,68.87
2023-03-24T21:58:28.133Z,68.08
2023-03-24T22:00:42.097Z,68.28
2023-03-24T22:02:59.233Z,68.69
2023-03-24T22:05:12.747Z,68.60
2023-03-24T22:07:25.673Z,68.73
2023-03-24T22:09:39.117Z,68.61
2023-03-24T22:11:53.989Z,68.58
2023-03-24T22:14:07.268Z,68.06
2023-03-24T22:16:20.359Z,67.76
2023-03-24T22:18:34.854Z,67.33
2023-03-24T22:20:47.784Z,66.77
2023-03-24T22:23:04.347Z,66.74
2023-03-24T22:25:20.616Z,66.82
2023-03-24T22:27:34.066Z,67.12
2023-03-24T22:29:46.912Z,67.36
2023-03-24T22:31:59.420Z,67.35
2023-03-24T22:34:12.665Z,67.65
2023-03-24T22:36:25.638Z,67.54
2023-03-24T22:38:39.094Z,67.30
2023-03-24T22:40:52.019Z,67.69
2023-03-24T22:43:04.568Z,67.50
2023-03-24T22:45:17.773Z,67.50
2023-03-24T22:47:30.951Z,67.53
2023-03-24T22:49:43.800Z,67.60
2023-03-24T22:51:56.346Z,67.91
2023-03-24T22:54:09.296Z,67.53
2023-03-24T22:56:22.641Z,66.96
2023-03-24T22:58:36.198Z,66.76
2023-03-24T23:00:51.126Z,66.63
2023-03-24T23:03:03.767Z,66.47
2023-03-24T23:05:16.624Z,66.52
2023-03-24T23:07:30.753Z,66.63
2023-03-24T23:09:44.285Z,66.94
2023-03-24T23:11:57.488Z,66.98
2023-03-24T23:14:10.476Z,67.20
2023-03-24T23:16:23.618Z,67.36
2023-03-24T23:18:36.256Z,67.92
2023-03-24T23:20:50.171Z,68.01
2023-03-24T23:23:05.094Z,68.23
2023-03-24T23:25:20.129Z,68.51
2023-03-24T23:27:35.744Z,68.13
2023-03-24T23:29:48.514Z,67.79
2023-03-24T23:32:01.334Z,67.61
2023-03-24T23:34:16.715Z,67.54
2023-03-24T23:36:29.843Z,67.80
2023-03-24T23:38:43.236Z,67.60
2023-03-24T23:40:55.914Z,67.44
2023-03-24T23:43:08.475Z,67.35
2023-03-24T23:45:23.708Z,67.12
2023-03-24T23:47:37.692Z,66.95
2023-03-24T23:49:50.721Z,66.93
2023-03-24T23:52:03.581Z,66.57
2023-03-24T23:54:16.939Z,66.36
2023-03-24T23:56:31.643Z,66.10
2023-03-24T23:58:45.459Z,66.19
